Time,TemperatureF,DewpointF,PressureIn,WindDirection,WindDirectionDegrees,WindSpeedMPH,WindSpeedGustMPH,Humidity,HourlyPrecipIn,Conditions,Clouds,dailyrainin,SoftwareType,DateUTC
2013-02-14 00:02:00,32.0,23.0,29.65,NNE,29,1.0,3.0,70,0.00,,,0.00,,2013-02-14 05:02:00,
2013-02-14 00:11:00,32.0,23.0,29.65,NNE,29,1.0,3.0,70,0.00,,,0.00,,2013-02-14 05:11:00,
2013-02-14 00:22:00,32.0,23.0,29.64,NW,315,3.0,5.0,69,0.00,,,0.00,,2013-02-14 05:22:00,
2013-02-14 00:32:00,32.0,23.0,29.64,NW,315,3.0,5.0,69,0.00,,,0.00,,2013-02-14 05:32:00,
2013-02-14 00:42:00,32.0,23.0,29.64,NW,315,3.0,5.0,69,0.00,,,0.00,,2013-02-14 05:42:00,
2013-02-14 00:52:00,32.0,24.0,29.61,ESE,118,4.0,8.0,71,0.00,,,0.00,,2013-02-14 05:52:00,
2013-02-14 01:02:00,32.0,23.0,29.64,NNW,343,1.0,4.0,69,0.00,,,0.00,,2013-02-14 06:02:00,
2013-02-14 01:11:00,32.0,23.0,29.66,SW,227,0.0,2.0,69,0.00,,,0.00,,2013-02-14 06:11:00,
2013-02-14 01:21:00,32.0,23.0,29.66,SW,227,0.0,2.0,69,0.00,,,0.00,,2013-02-14 06:21:00,
2013-02-14 01:32:00,32.0,23.0,29.66,SW,232,0.0,1.0,70,0.00,,,0.00,,2013-02-14 06:32:00,
2013-02-14 01:42:00,32.0,23.0,29.66,SW,232,0.0,1.0,70,0.00,,,0.00,,2013-02-14 06:42:00,
2013-02-14 01:52:00,31.0,23.0,29.67,West,269,0.0,1.0,72,0.00,,,0.00,,2013-02-14 06:52:00,
2013-02-14 02:01:00,32.0,24.0,29.66,NE,43,2.0,4.0,73,0.00,,,0.00,,2013-02-14 07:01:00,
2013-02-14 02:11:00,32.0,24.0,29.66,NE,43,2.0,4.0,73,0.00,,,0.00,,2013-02-14 07:11:00,
2013-02-14 02:21:00,32.0,24.0,29.66,NE,34,1.0,4.0,73,0.00,,,0.00,,2013-02-14 07:21:00,
2013-02-14 02:32:00,32.0,24.0,29.65,NNW,348,2.0,7.0,72,0.00,,,0.00,,2013-02-14 07:32:00,
2013-02-14 02:42:00,32.0,24.0,29.65,NNW,348,2.0,7.0,72,0.00,,,0.00,,2013-02-14 07:42:00,
2013-02-14 02:52:00,33.0,24.0,29.65,NE,51,3.0,7.0,68,0.00,,,0.00,,2013-02-14 07:52:00,
2013-02-14 03:01:00,33.0,24.0,29.65,NNE,15,2.0,7.0,68,0.00,,,0.00,,2013-02-14 08:01:00,
2013-02-14 03:11:00,33.0,24.0,29.65,NNE,15,2.0,7.0,68,0.00,,,0.00,,2013-02-14 08:11:00,
2013-02-14 03:22:00,33.0,24.0,29.65,NNW,339,3.0,7.0,68,0.00,,,0.00,,2013-02-14 08:22:00,
2013-02-14 03:32:00,33.0,24.0,29.66,NE,41,3.0,6.0,68,0.00,,,0.00,,2013-02-14 08:32:00,
2013-02-14 03:43:00,33.0,24.0,29.66,NE,41,3.0,6.0,68,0.00,,,0.00,,2013-02-14 08:43:00,
2013-02-14 03:52:00,32.0,23.0,29.67,NE,34,3.0,6.0,68,0.00,,,0.00,,2013-02-14 08:52:00,
2013-02-14 08:52:00,34.0,24.0,29.76,NE,38,3.0,8.0,67,0.00,,,0.00,,2013-02-14 13:52:00,
2013-02-14 09:01:00,34.0,23.0,29.77,WNW,298,4.0,9.0,64,0.00,,,0.00,,2013-02-14 14:01:00,
2013-02-14 09:11:00,34.0,23.0,29.77,WNW,298,4.0,9.0,64,0.00,,,0.00,,2013-02-14 14:11:00,
2013-02-14 09:21:00,35.0,24.0,29.77,ESE,119,2.0,7.0,64,0.00,,,0.00,,2013-02-14 14:21:00,
2013-02-14 09:32:00,36.0,24.0,29.78,NNW,327,3.0,9.0,61,0.00,,,0.00,,2013-02-14 14:32:00,
2013-02-14 09:42:00,36.0,24.0,29.78,NNW,327,3.0,9.0,61,0.00,,,0.00,,2013-02-14 14:42:00,
2013-02-14 09:52:00,37.0,24.0,29.79,SE,144,2.0,8.0,59,0.00,,,0.00,,2013-02-14 14:52:00,
2013-02-14 10:02:00,37.0,23.0,29.79,NW,313,4.0,8.0,56,0.00,,,0.00,,2013-02-14 15:02:00,
2013-02-14 10:11:00,37.0,23.0,29.79,NW,313,4.0,8.0,56,0.00,,,0.00,,2013-02-14 15:11:00,
2013-02-14 10:21:00,38.0,22.0,29.79,NE,43,3.0,8.0,53,0.00,,,0.00,,2013-02-14 15:21:00,
2013-02-14 10:32:00,38.0,22.0,29.80,West,262,3.0,10.0,51,0.00,,,0.00,,2013-02-14 15:32:00,
2013-02-14 10:42:00,38.0,22.0,29.80,West,262,3.0,10.0,51,0.00,,,0.00,,2013-02-14 15:42:00,
2013-02-14 10:52:00,39.0,23.0,29.80,SW,214,3.0,8.0,52,0.00,,,0.00,,2013-02-14 15:52:00,
2013-02-14 11:02:00,39.0,22.0,29.80,NE,44,2.0,6.0,51,0.00,,,0.00,,2013-02-14 16:02:00,
2013-02-14 11:11:00,39.0,23.0,29.80,NNW,336,2.0,11.0,52,0.00,,,0.00,,2013-02-14 16:11:00,
2013-02-14 11:21:00,39.0,23.0,29.80,NNW,336,2.0,11.0,52,0.00,,,0.00,,2013-02-14 16:21:00,
2013-02-14 11:32:00,39.0,23.0,29.80,NNW,346,3.0,11.0,53,0.00,,,0.00,,2013-02-14 16:32:00,
2013-02-14 11:42:00,39.0,23.0,29.80,NNW,346,3.0,11.0,53,0.00,,,0.00,,2013-02-14 16:42:00,
2013-02-14 11:51:00,39.0,23.0,29.80,NNW,333,3.0,13.0,52,0.00,,,0.00,,2013-02-14 16:51:00,
2013-02-14 12:01:00,39.0,22.0,29.80,SSE,165,4.0,12.0,51,0.00,,,0.00,,2013-02-14 17:01:00,
2013-02-14 12:11:00,39.0,22.0,29.80,SSE,165,4.0,12.0,51,0.00,,,0.00,,2013-02-14 17:11:00,
2013-02-14 12:21:00,39.0,22.0,29.80,NE,34,6.0,13.0,51,0.00,,,0.00,,2013-02-14 17:21:00,
2013-02-14 12:32:00,39.0,21.0,29.80,NNW,348,6.0,17.0,49,0.00,,,0.00,,2013-02-14 17:32:00,
2013-02-14 12:42:00,39.0,21.0,29.80,NNW,348,6.0,17.0,49,0.00,,,0.00,,2013-02-14 17:42:00,